Airfield :
LOGIN :

Register | Disclaimer

   EN    FR    IT 

 










Legend :    VFR   Marginal VFR   IFR   Intensive IFR   Very Intensive IFR
Visi :
Ceiling :
>= 8 km
>= 3000ft
5 to 8 km
1000 to 3000 ft
1500m to 5 km
500 to 1000 ft
800 to 1500m
200 to 500 ft
< 800m
< 200 ft
Symbols :   Thunderstorms  Fog  Heavy snow  Heavy precipitations  Wind > 20 kt
SIGMETs :     Misc.  Thunderstorms  Icing  Turbulence  Mountain Waves  Volcanic Ashes







- Airport Elevation : 1475 ft


LSZC - Buochs Stans

CURRENT METAR :
  • 261020Z 10008KT 9999 BKN034 06/M02 Q1029

EXPIRED METARs :
  • 260950Z 10005KT 040V130 9999 BKN034 06/M01 Q1029
  • 260920Z VRB06KT 9999 BKN035 05/M01 Q1029
  • 260850Z 07004KT 030V110 9999 BKN049 06/M00 Q1029
  • 260820Z VRB01KT 9999 SCT022 BKN050 04/01 Q1028
  • 260750Z VRB01KT 9999 SCT020 BKN042 04/00 Q1028

TAF TAF LSZC
Valid from the 26 at 09:00 until the 26 at 18:00 UTC


260825Z 2609/2618 04006KT 9999 SCT020 BKN040
BECMG 2615/2618 CAVOK
No reported NOTAMs for that airfield.
1 SIGMET reported for the Switzerland FIR (LSAS) :
 
Severe mountain waves
LSAS SIGMET 1 VALID 260930/261125 LSZH
LSAS SWITZERLAND FIR/UIR SEV MTW FCST WI N4640 E01042 - N4535 E00949 - N4533 E00720 - N4554 E00659 - N4625 E00738 - N4639 E00845 - N4640 E01042 FL120/400 STNR INTSF=



MET'MAP, your aeronautical weather chart ! - Copyright ORBIFLY December 2007 - Disclaimer

ORBIFLY MET'MAP TEAM :

Programming & Development : Alexandra Zaïnal
Concept & Development : Baudouin d'Aumeries
Co-Development & Prog : Marc-Olivier Méhu
Technical & hardware support : Manuel Goepfert

Contact : metmap@orbifly.com




SOURCES & CREDITS :

   NOAA